createdAt,value
2019-05-17T00:00:37.390Z,5.13
2019-05-17T00:03:06.824Z,5.67
2019-05-17T00:05:37.389Z,5.20
2019-05-17T00:08:07.707Z,5.60
2019-05-17T00:10:37.603Z,5.53
2019-05-17T00:13:07.589Z,5.00
2019-05-17T00:15:38.663Z,5.77
2019-05-17T00:18:07.296Z,4.90
2019-05-17T00:20:37.919Z,5.30
2019-05-17T00:23:07.292Z,5.70
2019-05-17T00:25:36.930Z,4.97
2019-05-17T00:28:07.399Z,5.70
2019-05-17T00:30:37.485Z,5.17
2019-05-17T00:33:07.852Z,5.70
2019-05-17T00:35:37.641Z,5.50
2019-05-17T00:38:06.947Z,5.60
2019-05-17T00:40:36.657Z,5.27
2019-05-17T00:43:06.743Z,4.93
2019-05-17T00:45:37.642Z,5.23
2019-05-17T00:48:06.807Z,5.60
2019-05-17T00:50:37.826Z,4.97
2019-05-17T00:53:07.198Z,5.47
2019-05-17T00:55:36.437Z,5.53
2019-05-17T00:58:06.925Z,5.30
2019-05-17T01:00:37.553Z,5.77
2019-05-17T01:03:07.237Z,5.57
2019-05-17T01:05:36.901Z,5.90
2019-05-17T01:08:07.175Z,5.33
2019-05-17T01:10:37.202Z,6.00
2019-05-17T01:13:06.823Z,5.73
2019-05-17T01:15:36.843Z,6.07
2019-05-17T01:18:07.134Z,5.77
2019-05-17T01:20:36.922Z,6.13
2019-05-17T01:23:07.548Z,6.00
2019-05-17T01:25:36.937Z,6.00
2019-05-17T01:28:07.689Z,6.17
2019-05-17T01:30:37.490Z,5.97
2019-05-17T01:33:06.732Z,6.03
2019-05-17T01:35:37.451Z,5.90
2019-05-17T01:38:07.375Z,5.93
2019-05-17T01:40:37.482Z,5.90
2019-05-17T01:43:07.878Z,6.17
2019-05-17T01:45:36.597Z,5.93
2019-05-17T01:48:07.387Z,6.17
2019-05-17T01:50:37.339Z,5.80
2019-05-17T01:53:07.465Z,6.33
2019-05-17T01:55:41.605Z,6.40
2019-05-17T01:58:16.277Z,6.20
2019-05-17T02:00:48.522Z,6.60
2019-05-17T02:03:17.423Z,5.97
2019-05-17T02:05:47.417Z,6.07
2019-05-17T02:08:17.090Z,6.37
2019-05-17T02:10:46.977Z,6.00
2019-05-17T02:13:16.463Z,5.90
2019-05-17T02:15:46.956Z,6.30
2019-05-17T02:18:17.216Z,6.67
2019-05-17T02:20:46.442Z,6.50
2019-05-17T02:23:17.254Z,6.27
2019-05-17T02:25:47.227Z,6.90
2019-05-17T02:28:15.940Z,6.53
2019-05-17T02:30:44.902Z,6.00
2019-05-17T02:33:15.674Z,6.43
2019-05-17T02:35:44.260Z,6.40
2019-05-17T02:38:13.377Z,6.20
2019-05-17T02:40:43.049Z,6.53
2019-05-17T02:43:13.264Z,6.63
2019-05-17T02:45:43.495Z,7.10
2019-05-17T02:48:13.446Z,6.90
2019-05-17T02:50:43.628Z,7.27
2019-05-17T02:53:13.321Z,7.20
2019-05-17T02:55:43.516Z,6.67
2019-05-17T02:58:12.858Z,6.83
2019-05-17T03:00:44.358Z,7.20
2019-05-17T03:03:13.422Z,6.87
2019-05-17T03:05:43.087Z,7.23
2019-05-17T03:08:12.314Z,6.83
2019-05-17T03:10:43.250Z,6.67
2019-05-17T03:13:12.824Z,7.40
2019-05-17T03:15:43.271Z,7.10
2019-05-17T03:18:13.424Z,6.63
2019-05-17T03:20:43.179Z,7.40
2019-05-17T03:23:12.713Z,6.63
2019-05-17T03:25:43.934Z,6.57
2019-05-17T03:28:13.467Z,6.90
2019-05-17T03:30:46.749Z,7.43
2019-05-17T03:33:15.989Z,7.13
2019-05-17T03:35:46.182Z,6.60
2019-05-17T03:38:14.803Z,7.20
2019-05-17T03:43:13.905Z,6.67
2019-05-17T03:45:43.728Z,7.07
2019-05-17T03:48:12.926Z,7.00
2019-05-17T03:50:43.572Z,7.90
2019-05-17T03:53:13.145Z,7.83
2019-05-17T03:55:42.960Z,7.43
2019-05-17T03:58:12.695Z,7.13
2019-05-17T04:00:42.785Z,7.77
2019-05-17T04:03:13.512Z,6.87
2019-05-17T04:05:42.867Z,7.43
2019-05-17T04:08:13.978Z,6.77
2019-05-17T04:10:42.579Z,8.27
2019-05-17T04:13:12.946Z,7.80
2019-05-17T04:15:43.297Z,7.20
2019-05-17T04:18:13.042Z,7.47
2019-05-17T04:20:43.415Z,7.63
2019-05-17T04:23:12.733Z,7.77
2019-05-17T04:25:43.601Z,6.90
2019-05-17T04:28:13.600Z,7.87
2019-05-17T04:30:43.319Z,8.23
2019-05-17T04:33:12.875Z,8.17
2019-05-17T04:35:43.965Z,8.33
2019-05-17T04:38:14.595Z,7.90
2019-05-17T04:40:43.389Z,8.33
2019-05-17T04:43:13.580Z,7.77
2019-05-17T04:45:42.775Z,8.00
2019-05-17T04:48:13.223Z,8.33
2019-05-17T04:50:42.883Z,8.00
2019-05-17T04:53:13.227Z,8.13
2019-05-17T04:55:43.142Z,8.10
2019-05-17T04:58:13.748Z,8.60
2019-05-17T05:00:43.186Z,8.43
2019-05-17T05:03:12.953Z,8.70
2019-05-17T05:05:42.734Z,8.27
2019-05-17T05:08:13.033Z,8.80
2019-05-17T05:10:42.704Z,9.07
2019-05-17T05:13:13.346Z,8.67
2019-05-17T05:15:44.175Z,9.53
2019-05-17T05:18:13.406Z,8.50
2019-05-17T05:20:43.484Z,8.63
2019-05-17T05:23:13.728Z,8.90
2019-05-17T05:25:43.012Z,9.10
2019-05-17T05:28:11.832Z,9.03
2019-05-17T05:30:42.322Z,8.87
2019-05-17T05:33:12.952Z,9.77
2019-05-17T05:35:42.535Z,9.10
2019-05-17T05:38:13.158Z,8.80
2019-05-17T05:40:42.122Z,9.63
2019-05-17T05:43:12.001Z,9.30
2019-05-17T05:45:41.741Z,9.10
2019-05-17T05:48:12.804Z,8.97
2019-05-17T05:50:43.119Z,9.10
2019-05-17T05:53:12.916Z,10.17
2019-05-17T05:55:43.321Z,10.50
2019-05-17T05:58:12.249Z,9.20
2019-05-17T06:00:45.295Z,9.40
2019-05-17T06:03:22.497Z,10.10
2019-05-17T06:05:57.742Z,9.40
2019-05-17T06:08:41.454Z,10.00
2019-05-17T06:11:22.895Z,10.47
2019-05-17T06:14:12.192Z,10.67
2019-05-17T06:16:47.812Z,10.43
2019-05-17T06:19:27.977Z,10.60
2019-05-17T06:22:06.729Z,10.23
2019-05-17T06:24:44.568Z,9.93
2019-05-17T06:27:21.542Z,11.13
2019-05-17T06:29:57.563Z,10.20
2019-05-17T06:32:31.697Z,9.53
2019-05-17T06:35:08.747Z,10.27
2019-05-17T06:37:47.939Z,10.50
2019-05-17T06:40:24.415Z,10.73
2019-05-17T06:42:59.720Z,10.20
2019-05-17T06:45:37.552Z,10.90
2019-05-17T06:48:13.614Z,10.73
2019-05-17T06:50:52.318Z,11.20
2019-05-17T06:53:32.144Z,11.20
2019-05-17T06:56:06.811Z,11.37
2019-05-17T06:58:45.644Z,11.03
2019-05-17T07:01:24.058Z,11.50
2019-05-17T07:04:01.026Z,10.90
2019-05-17T07:06:43.068Z,11.73
2019-05-17T07:09:19.498Z,11.87
2019-05-17T07:11:56.356Z,10.63
2019-05-17T07:14:35.756Z,11.70
2019-05-17T07:17:11.524Z,11.77
2019-05-17T07:19:50.742Z,12.43
2019-05-17T07:22:29.493Z,11.80
2019-05-17T07:25:07.590Z,12.63
2019-05-17T07:27:45.887Z,12.50
2019-05-17T07:30:25.895Z,12.93
2019-05-17T07:33:03.437Z,12.80
2019-05-17T07:35:39.781Z,13.07
2019-05-17T07:38:16.496Z,12.90
2019-05-17T07:40:59.479Z,13.33
2019-05-17T07:43:32.924Z,14.07
2019-05-17T07:46:12.056Z,13.37
2019-05-17T07:48:49.784Z,13.67
2019-05-17T07:51:30.290Z,14.40
2019-05-17T07:54:07.030Z,14.20
2019-05-17T07:56:47.265Z,14.33
2019-05-17T07:59:24.481Z,13.97
2019-05-17T08:02:00.942Z,14.20
2019-05-17T08:04:40.492Z,14.30
2019-05-17T08:07:16.291Z,13.77
2019-05-17T08:09:53.803Z,14.60
2019-05-17T08:12:30.921Z,13.03
2019-05-17T08:15:04.498Z,14.20
2019-05-17T08:17:40.217Z,14.17
2019-05-17T08:20:16.383Z,14.07
2019-05-17T08:22:53.881Z,14.20
2019-05-17T08:25:33.199Z,13.47
2019-05-17T08:28:11.142Z,14.00
2019-05-17T08:30:50.634Z,13.97
2019-05-17T08:33:30.096Z,14.23
2019-05-17T08:36:04.424Z,13.67
2019-05-17T08:38:45.605Z,14.20
2019-05-17T08:41:30.829Z,13.03
2019-05-17T08:44:10.616Z,12.70
2019-05-17T08:46:50.112Z,13.00
2019-05-17T08:49:32.286Z,13.63
2019-05-17T08:52:11.302Z,14.07
2019-05-17T08:54:51.667Z,13.53
2019-05-17T08:57:30.264Z,13.00
2019-05-17T09:00:05.933Z,13.17
2019-05-17T09:02:40.967Z,12.57
2019-05-17T09:05:21.208Z,12.63
2019-05-17T09:08:01.075Z,13.50
2019-05-17T09:10:40.471Z,13.73
2019-05-17T09:13:12.295Z,12.50
2019-05-17T09:15:46.340Z,13.07
2019-05-17T09:18:29.975Z,13.17
2019-05-17T09:21:05.903Z,13.40
2019-05-17T09:23:42.452Z,13.93
2019-05-17T09:26:20.191Z,13.30
2019-05-17T09:28:56.315Z,13.60
2019-05-17T09:31:40.255Z,13.73
2019-05-17T09:34:20.924Z,13.50
2019-05-17T09:37:00.341Z,13.23
2019-05-17T09:39:40.171Z,13.77
2019-05-17T09:42:17.459Z,13.50
2019-05-17T09:44:52.797Z,13.47
2019-05-17T09:47:30.069Z,13.27
2019-05-17T09:50:06.716Z,13.70
2019-05-17T09:52:49.255Z,14.77
2019-05-17T09:55:23.589Z,14.87
2019-05-17T09:58:03.866Z,15.07
2019-05-17T10:00:42.089Z,14.97
2019-05-17T10:03:30.680Z,17.30
2019-05-17T10:06:10.080Z,17.10
2019-05-17T10:08:50.536Z,17.67
2019-05-17T10:11:30.893Z,18.23
2019-05-17T10:14:10.124Z,18.73
2019-05-17T10:16:47.913Z,18.70
2019-05-17T10:19:29.607Z,18.60
2019-05-17T10:22:06.355Z,19.53
2019-05-17T10:24:44.848Z,18.70
2019-05-17T10:27:23.521Z,19.77
2019-05-17T10:30:00.342Z,18.73
2019-05-17T10:32:42.584Z,19.57
2019-05-17T10:35:17.151Z,19.67
2019-05-17T10:37:52.448Z,18.90
2019-05-17T10:40:31.063Z,19.80
2019-05-17T10:43:10.039Z,18.60
2019-05-17T10:45:51.828Z,19.77
2019-05-17T10:48:35.119Z,17.90
2019-05-17T10:51:12.822Z,17.57
2019-05-17T10:53:48.046Z,17.70
2019-05-17T10:56:23.908Z,17.80
2019-05-17T10:59:00.148Z,18.30
2019-05-17T11:01:45.955Z,18.00
2019-05-17T11:04:23.679Z,18.10
2019-05-17T11:07:00.509Z,17.20
2019-05-17T11:09:40.305Z,16.87
2019-05-17T11:12:17.065Z,17.83
2019-05-17T11:15:09.664Z,16.37
2019-05-17T11:17:36.893Z,16.93
2019-05-17T11:20:17.570Z,16.77
2019-05-17T11:22:56.665Z,17.17
2019-05-17T11:25:32.659Z,15.60
2019-05-17T11:28:18.535Z,16.13
2019-05-17T11:30:59.161Z,15.17
2019-05-17T11:33:48.433Z,15.57
2019-05-17T11:36:27.462Z,16.03
2019-05-17T11:39:06.519Z,14.97
2019-05-17T11:41:45.573Z,14.27
2019-05-17T11:44:24.727Z,15.30
2019-05-17T11:47:01.500Z,15.53
2019-05-17T11:49:42.505Z,15.30
2019-05-17T11:52:20.341Z,14.93
2019-05-17T11:55:04.038Z,14.30
2019-05-17T11:57:37.684Z,15.43
2019-05-17T12:00:11.922Z,14.43
2019-05-17T12:02:48.931Z,14.67
2019-05-17T12:05:29.642Z,14.37
2019-05-17T12:08:12.316Z,14.73
2019-05-17T12:10:51.078Z,14.20
2019-05-17T12:13:32.162Z,13.67
2019-05-17T12:16:08.056Z,13.70
2019-05-17T12:18:46.570Z,13.83
2019-05-17T12:21:26.294Z,13.87
2019-05-17T12:24:01.723Z,13.47
2019-05-17T12:26:37.873Z,12.83
2019-05-17T12:29:14.798Z,13.13
2019-05-17T12:31:45.639Z,13.00
2019-05-17T12:34:25.157Z,12.20
2019-05-17T12:37:00.243Z,13.47
2019-05-17T12:39:38.834Z,12.97
2019-05-17T12:42:19.467Z,12.43
2019-05-17T12:44:56.781Z,13.60
2019-05-17T12:47:31.564Z,13.60
2019-05-17T12:50:12.351Z,13.43
2019-05-17T12:52:48.600Z,13.20
2019-05-17T12:55:25.560Z,14.43
2019-05-17T12:58:05.092Z,13.80
2019-05-17T13:00:43.603Z,13.47
2019-05-17T13:03:21.542Z,13.73
2019-05-17T13:05:57.957Z,14.07
2019-05-17T13:08:45.255Z,14.20
2019-05-17T13:11:20.640Z,14.10
2019-05-17T13:13:57.748Z,15.13
2019-05-17T13:16:35.053Z,14.93
2019-05-17T13:19:14.253Z,15.07
2019-05-17T13:22:02.987Z,15.27
2019-05-17T13:24:40.031Z,14.90
2019-05-17T13:27:15.285Z,15.50
2019-05-17T13:29:56.656Z,15.57
2019-05-17T13:32:35.105Z,13.90
2019-05-17T13:35:13.151Z,15.10
2019-05-17T13:37:46.769Z,15.13
2019-05-17T13:40:23.877Z,15.13
2019-05-17T13:43:06.410Z,15.70
2019-05-17T13:45:47.396Z,15.57
2019-05-17T13:48:27.870Z,14.87
2019-05-17T13:51:04.954Z,15.47
2019-05-17T13:53:41.233Z,13.73
2019-05-17T13:56:18.771Z,13.60
2019-05-17T13:59:02.797Z,15.37
2019-05-17T14:01:43.642Z,15.40
2019-05-17T14:04:17.367Z,15.00
2019-05-17T14:06:56.443Z,14.47
2019-05-17T14:09:37.345Z,14.63
2019-05-17T14:12:13.505Z,13.83
2019-05-17T14:14:57.588Z,14.40
2019-05-17T14:17:32.143Z,14.60
2019-05-17T14:20:14.222Z,14.80
2019-05-17T14:22:54.641Z,14.80
2019-05-17T14:25:30.475Z,15.33
2019-05-17T14:28:10.734Z,15.03
2019-05-17T14:30:53.037Z,14.80
2019-05-17T14:33:28.927Z,15.43
2019-05-17T14:36:03.078Z,14.43
2019-05-17T14:38:48.195Z,14.30
2019-05-17T14:41:25.026Z,13.43
2019-05-17T14:43:59.046Z,13.87
2019-05-17T14:46:34.691Z,14.97
2019-05-17T14:49:12.211Z,14.50
2019-05-17T14:51:50.640Z,15.33
2019-05-17T14:54:26.966Z,14.53
2019-05-17T14:57:12.293Z,15.27
2019-05-17T14:59:54.596Z,14.90
2019-05-17T15:02:30.313Z,16.47
2019-05-17T15:05:06.412Z,14.30
2019-05-17T15:07:41.247Z,16.53
2019-05-17T15:10:21.908Z,15.47
2019-05-17T15:12:56.163Z,14.93
2019-05-17T15:15:36.455Z,15.03
2019-05-17T15:18:11.661Z,14.50
2019-05-17T15:20:47.458Z,16.27
2019-05-17T15:23:27.548Z,15.37
2019-05-17T15:26:05.889Z,13.70
2019-05-17T15:28:39.004Z,16.07
2019-05-17T15:31:12.303Z,14.97
2019-05-17T15:33:42.058Z,14.50
2019-05-17T15:36:17.382Z,15.80
2019-05-17T15:38:54.052Z,16.00
2019-05-17T15:41:34.975Z,15.70
2019-05-17T15:44:15.974Z,16.00
2019-05-17T15:46:57.015Z,15.47
2019-05-17T15:49:38.183Z,17.17
2019-05-17T15:52:25.425Z,15.90
2019-05-17T15:55:06.866Z,15.17
2019-05-17T15:57:41.543Z,15.60
2019-05-17T16:00:17.107Z,15.53
2019-05-17T16:02:56.805Z,14.90
2019-05-17T16:05:37.039Z,15.83
2019-05-17T16:08:16.032Z,15.83
2019-05-17T16:10:58.266Z,15.13
2019-05-17T16:13:34.948Z,15.90
2019-05-17T16:16:11.819Z,16.53
2019-05-17T16:18:47.907Z,16.97
2019-05-17T16:21:26.165Z,16.17
2019-05-17T16:24:02.885Z,16.63
2019-05-17T16:26:41.054Z,15.83
2019-05-17T16:29:20.299Z,17.87
2019-05-17T16:32:01.679Z,16.13
2019-05-17T16:34:41.298Z,16.80
2019-05-17T16:37:17.921Z,17.20
2019-05-17T16:40:04.281Z,17.17
2019-05-17T16:42:39.854Z,16.97
2019-05-17T16:45:19.690Z,16.83
2019-05-17T16:47:54.622Z,15.77
2019-05-17T16:50:30.931Z,16.63
2019-05-17T16:53:09.939Z,17.00
2019-05-17T16:55:45.782Z,15.97
2019-05-17T16:58:26.803Z,17.57
2019-05-17T17:01:08.241Z,17.47
2019-05-17T17:03:48.216Z,18.20
2019-05-17T17:06:26.212Z,17.03
2019-05-17T17:09:03.153Z,17.33
2019-05-17T17:11:38.743Z,17.30
2019-05-17T17:14:18.705Z,17.30
2019-05-17T17:16:56.039Z,16.97
2019-05-17T17:19:32.913Z,18.43
2019-05-17T17:22:10.157Z,18.20
2019-05-17T17:24:53.146Z,18.33
2019-05-17T17:27:29.683Z,18.80
2019-05-17T17:30:07.412Z,19.53
2019-05-17T17:32:48.260Z,18.37
2019-05-17T17:35:21.902Z,20.00
2019-05-17T17:37:58.361Z,19.20
2019-05-17T17:40:48.327Z,18.40
2019-05-17T17:43:21.542Z,18.83
2019-05-17T17:46:01.379Z,18.03
2019-05-17T17:48:38.886Z,18.70
2019-05-17T17:51:13.061Z,17.50
2019-05-17T17:53:51.135Z,16.47
2019-05-17T17:56:23.975Z,16.63
2019-05-17T17:59:01.348Z,16.57
2019-05-17T18:01:41.544Z,15.70
2019-05-17T18:04:17.995Z,15.90
2019-05-17T18:06:53.322Z,16.43
2019-05-17T18:09:32.159Z,16.00
2019-05-17T18:12:07.954Z,16.77
2019-05-17T18:14:44.888Z,16.30
2019-05-17T18:17:21.738Z,15.57
2019-05-17T18:20:06.501Z,14.87
2019-05-17T18:22:42.669Z,15.87
2019-05-17T18:25:18.605Z,16.30
2019-05-17T18:27:59.308Z,16.60
2019-05-17T18:30:35.644Z,16.60
2019-05-17T18:33:13.636Z,15.80
2019-05-17T18:35:52.136Z,15.97
2019-05-17T18:38:28.112Z,16.43
2019-05-17T18:41:05.708Z,26.03
2019-05-17T18:43:43.665Z,18.33
2019-05-17T18:46:27.042Z,17.77
2019-05-17T18:49:09.141Z,16.83
2019-05-17T18:51:57.238Z,16.70
2019-05-17T18:54:36.665Z,15.47
2019-05-17T18:57:17.330Z,16.83
2019-05-17T19:00:01.582Z,20.93
2019-05-17T19:02:41.461Z,18.63
2019-05-17T19:05:25.362Z,16.87
2019-05-17T19:08:03.581Z,16.13
2019-05-17T19:10:33.434Z,15.47
2019-05-17T19:13:12.803Z,15.50
2019-05-17T19:15:55.977Z,16.43
2019-05-17T19:18:39.926Z,16.60
2019-05-17T19:21:10.912Z,15.17
2019-05-17T19:23:40.424Z,15.77
2019-05-17T19:26:09.055Z,15.80
2019-05-17T19:28:37.736Z,15.50
2019-05-17T19:31:19.894Z,15.40
2019-05-17T19:33:50.275Z,16.33
2019-05-17T19:36:18.783Z,15.27
2019-05-17T19:38:48.173Z,15.90
2019-05-17T19:41:16.779Z,15.47
2019-05-17T19:43:45.442Z,16.20
2019-05-17T19:46:14.743Z,15.50
2019-05-17T19:48:43.103Z,16.13
2019-05-17T19:51:11.705Z,15.90
2019-05-17T19:53:40.376Z,15.87
2019-05-17T19:56:11.686Z,15.23
2019-05-17T19:58:41.250Z,15.93
2019-05-17T20:01:09.704Z,15.73
2019-05-17T20:03:38.807Z,15.47
2019-05-17T20:06:07.556Z,16.13
2019-05-17T20:08:37.188Z,16.17
2019-05-17T20:11:05.666Z,16.00
2019-05-17T20:13:36.488Z,16.07
2019-05-17T20:16:05.731Z,16.30
2019-05-17T20:18:34.201Z,16.87
2019-05-17T20:21:03.015Z,16.53
2019-05-17T20:23:32.176Z,22.93
2019-05-17T20:26:00.647Z,17.10
2019-05-17T20:28:29.109Z,16.00
2019-05-17T20:30:58.638Z,15.67
2019-05-17T20:33:27.323Z,16.07
2019-05-17T20:35:56.031Z,16.20
2019-05-17T20:38:24.524Z,16.37
2019-05-17T20:40:53.175Z,16.33
2019-05-17T20:43:22.711Z,16.43
2019-05-17T20:45:51.575Z,16.90
2019-05-17T20:48:20.457Z,17.10
2019-05-17T20:50:49.203Z,17.20
2019-05-17T20:53:19.585Z,17.10
2019-05-17T20:55:48.050Z,17.73
2019-05-17T20:58:16.892Z,17.03
2019-05-17T21:00:45.455Z,17.97
2019-05-17T21:03:17.295Z,17.43
2019-05-17T21:05:45.795Z,18.37
2019-05-17T21:08:14.458Z,19.17
2019-05-17T21:10:43.184Z,18.47
2019-05-17T21:13:11.839Z,19.47
2019-05-17T21:15:47.928Z,17.67
2019-05-17T21:18:12.300Z,18.13
2019-05-17T21:20:41.252Z,19.13
2019-05-17T21:23:09.760Z,19.37
2019-05-17T21:25:38.372Z,20.13
2019-05-17T21:28:06.994Z,19.43
2019-05-17T21:30:35.674Z,20.57
2019-05-17T21:33:04.391Z,20.20
2019-05-17T21:35:32.868Z,20.07
2019-05-17T21:38:01.333Z,20.43
2019-05-17T21:40:30.042Z,20.67
2019-05-17T21:42:59.737Z,20.80
2019-05-17T21:45:28.413Z,20.00
2019-05-17T21:47:57.847Z,20.23
2019-05-17T21:50:26.391Z,21.27
2019-05-17T21:52:55.202Z,21.83
2019-05-17T21:55:24.048Z,20.40
2019-05-17T21:57:52.662Z,20.77
2019-05-17T22:00:56.725Z,20.90
2019-05-17T22:03:25.471Z,20.90
2019-05-17T22:05:54.150Z,20.20
2019-05-17T22:08:23.117Z,19.77
2019-05-17T22:10:51.924Z,20.90
2019-05-17T22:13:20.632Z,20.33
2019-05-17T22:15:49.026Z,21.47
2019-05-17T22:18:18.759Z,21.17
2019-05-17T22:20:47.711Z,20.07
2019-05-17T22:23:16.406Z,20.40
2019-05-17T22:25:45.068Z,20.50
2019-05-17T22:28:13.765Z,21.33
2019-05-17T22:30:42.476Z,21.67
2019-05-17T22:33:11.134Z,20.40
2019-05-17T22:35:39.713Z,20.43
2019-05-17T22:38:08.622Z,20.83
2019-05-17T22:40:37.490Z,20.70
2019-05-17T22:43:06.299Z,21.17
2019-05-17T22:45:34.995Z,21.10
2019-05-17T22:48:03.650Z,21.53
2019-05-17T22:50:32.335Z,20.83
2019-05-17T22:53:01.061Z,20.83
2019-05-17T22:55:30.455Z,21.23
2019-05-17T22:57:59.009Z,21.37
2019-05-17T23:00:27.766Z,20.20
2019-05-17T23:02:56.179Z,20.20
2019-05-17T23:05:26.272Z,20.63
2019-05-17T23:07:55.218Z,20.77
2019-05-17T23:10:24.070Z,21.20
2019-05-17T23:12:52.842Z,21.43
2019-05-17T23:15:21.679Z,21.33
2019-05-17T23:17:50.334Z,21.90
2019-05-17T23:20:18.613Z,22.30
2019-05-17T23:22:47.326Z,21.67
2019-05-17T23:25:16.011Z,21.83
2019-05-17T23:27:44.658Z,22.37
2019-05-17T23:30:13.093Z,22.23
2019-05-17T23:32:41.606Z,23.03
2019-05-17T23:35:10.935Z,22.97
2019-05-17T23:37:39.653Z,23.23
2019-05-17T23:40:08.602Z,24.07
2019-05-17T23:42:37.969Z,24.57
2019-05-17T23:45:06.823Z,23.03
2019-05-17T23:47:35.366Z,24.13
2019-05-17T23:50:04.723Z,24.50
2019-05-17T23:52:33.401Z,22.67
2019-05-17T23:55:02.061Z,24.27
2019-05-17T23:57:30.518Z,23.23
2019-05-17T23:59:59.224Z,22.17
